Terminal Aerodrome Forecast
Issued by NWS

Home | Current Version | Previous Version | Text Only | Print | Product List | Glossary On
Versions: 1 2 3 4 5 6 7 8 9 10 11 12 13 14 15 16 17 18 19 20 21 22 23 24 25 26 27 28
501
FTUS41 KOKX 261726
TAFHPN
TAF
KHPN 261726Z 2618/2718 26010G16KT P6SM SCT070
     FM262200 23008KT P6SM SCT070
     FM270000 24006KT P6SM SCT070
     FM270600 VRB04KT P6SM SCT070
     FM271300 24004KT P6SM BKN070
     FM271700 24006KT P6SM BKN120
      AMD NOT SKED=

USA.gov is the U.S. government's official web portal to all federal, state and local government web resources and services.